Time;durP1;ratioP1;P1;durP2;ratioP2;P2;SDS_P1;SDS_P2;PMS_P1;PMS_P2;Temp;Humidity;BMP_temperature;BMP_pressure;BME280_temperature;BME280_humidity;BME280_pressure;Samples;Min_cycle;Max_cycle;Signal;HPM_P1;HPM_P2
2023/01/05 00:00:29;;;;;;;16.60;10.18;;;;;;;10.11;62.57;100079.41;7710070;32;38029;-84
2023/01/05 00:04:46;;;;;;;15.70;10.00;;;;;;;10.16;62.56;100081.34;7712468;32;37919;-84
2023/01/05 00:09:03;;;;;;;22.02;11.88;;;;;;;10.07;62.95;100064.66;7711978;32;39437;-84
2023/01/05 00:22:32;;;;;;;23.73;14.52;;;;;;;9.50;64.62;100100.66;7712866;32;36830;-84
2023/01/05 00:26:48;;;;;;;24.77;14.20;;;;;;;9.30;64.65;100093.94;7712014;32;40064;-85
2023/01/05 00:31:04;;;;;;;19.92;11.27;;;;;;;9.50;63.87;100073.44;7712655;32;40172;-84
2023/01/05 00:35:22;;;;;;;24.42;13.27;;;;;;;9.54;64.01;100093.63;7712174;32;38909;-85
2023/01/05 00:39:38;;;;;;;31.73;18.08;;;;;;;9.42;64.28;100082.06;7712540;32;37821;-84
2023/01/05 00:43:54;;;;;;;22.58;13.75;;;;;;;9.05;65.33;100071.88;7712308;32;39308;-84
2023/01/05 00:48:11;;;;;;;21.05;11.48;;;;;;;9.20;64.48;100082.94;7711253;32;40835;-84
2023/01/05 00:52:27;;;;;;;17.12;10.25;;;;;;;9.17;65.48;100088.88;7712027;32;38708;-84
2023/01/05 00:56:45;;;;;;;25.62;15.88;;;;;;;9.31;65.53;100103.75;7711934;32;36737;-85
2023/01/05 01:01:07;;;;;;;22.48;13.65;;;;;;;9.52;63.67;100098.47;7712305;32;39060;-84
2023/01/05 01:05:23;;;;;;;21.55;11.80;;;;;;;9.26;64.66;100119.16;7711884;32;40877;-84
2023/01/05 01:09:40;;;;;;;18.90;10.57;;;;;;;9.37;65.14;100108.16;7712225;32;38035;-85
2023/01/05 01:13:56;;;;;;;20.15;11.38;;;;;;;9.37;65.81;100101.87;7712306;32;36294;-84
2023/01/05 01:18:12;;;;;;;16.42;9.65;;;;;;;9.51;65.63;100089.50;7697230;32;39201;-84
2023/01/05 01:22:28;;;;;;;16.52;10.32;;;;;;;9.48;66.02;100089.19;7711964;32;39941;-84
2023/01/05 01:26:45;;;;;;;18.05;10.00;;;;;;;9.71;65.45;100086.16;7711475;32;37971;-84
2023/01/05 01:31:01;;;;;;;16.98;10.23;;;;;;;9.72;65.39;100081.53;7711964;32;37088;-84
2023/01/05 01:35:17;;;;;;;29.73;16.52;;;;;;;9.62;66.19;100071.37;7711600;32;40011;-84
2023/01/05 01:39:34;;;;;;;31.60;19.33;;;;;;;9.03;65.27;100080.28;7711898;32;40012;-83
2023/01/05 01:43:52;;;;;;;26.83;15.52;;;;;;;8.80;65.41;100065.06;7711319;32;38050;-84
2023/01/05 01:48:13;;;;;;;27.45;15.63;;;;;;;8.91;65.28;100039.63;7711118;32;36554;-84
2023/01/05 01:52:30;;;;;;;31.20;15.02;;;;;;;9.07;65.20;100048.81;7698504;32;38989;-84
2023/01/05 01:56:52;;;;;;;24.33;14.73;;;;;;;8.97;66.14;100041.34;7711383;32;40772;-84
2023/01/05 02:01:09;;;;;;;23.00;14.30;;;;;;;8.95;66.58;100040.78;7698207;32;38003;-84
2023/01/05 02:05:29;;;;;;;25.30;14.32;;;;;;;8.97;67.01;100038.62;7697471;32;37220;-84
2023/01/05 02:09:45;;;;;;;21.20;13.50;;;;;;;9.22;66.36;100026.38;7710692;32;39708;-84
2023/01/05 02:14:08;;;;;;;23.85;13.18;;;;;;;9.11;66.88;100016.47;7711544;32;40892;-84
2023/01/05 02:18:42;;;;;;;23.15;12.20;;;;;;;9.21;66.85;100002.97;7710955;32;37914;-83
2023/01/05 02:23:23;;;;;;;23.10;12.85;;;;;;;9.07;67.89;100005.28;7710378;32;37235;-84
2023/01/05 02:27:57;;;;;;;22.45;12.45;;;;;;;9.11;68.05;99998.25;7711162;32;39260;-84
2023/01/05 02:32:21;;;;;;;22.10;12.77;;;;;;;9.33;67.57;99979.16;7697963;32;40065;-84
2023/01/05 02:36:46;;;;;;;22.40;12.98;;;;;;;8.94;69.02;99973.88;7696968;32;38686;-84
2023/01/05 02:41:12;;;;;;;20.37;12.48;;;;;;;9.35;67.71;99968.81;7711141;32;37228;-84
2023/01/05 02:45:28;;;;;;;28.83;12.82;;;;;;;9.27;68.10;99960.31;7697571;32;39244;-84
2023/01/05 02:49:45;;;;;;;23.70;12.90;;;;;;;9.38;67.84;99943.81;7711098;32;40775;-84
2023/01/05 02:54:05;;;;;;;21.73;13.10;;;;;;;9.16;68.56;99932.22;7710899;32;37872;-84
2023/01/05 02:58:45;;;;;;;24.55;13.95;;;;;;;9.40;67.91;99930.75;7710473;32;37072;-83
2023/01/05 03:03:27;;;;;;;22.55;13.18;;;;;;;9.31;68.13;99929.62;7699744;32;39286;-82
2023/01/05 03:07:45;;;;;;;17.70;10.68;;;;;;;9.16;68.75;99929.50;7698694;32;40444;-84
2023/01/05 03:16:49;;;;;;;14.68;8.70;;;;;;;9.34;69.02;99912.75;7710123;32;37827;-83
2023/01/05 03:21:06;;;;;;;13.45;8.98;;;;;;;9.66;68.23;99881.94;7697127;32;40788;-84
2023/01/05 03:35:34;;;;;;;15.13;8.45;;;;;;;9.86;68.11;99869.53;7710985;32;37504;-84
2023/01/05 03:39:51;;;;;;;13.52;8.35;;;;;;;9.63;69.16;99849.00;7662450;32;39302;-84
2023/01/05 03:44:07;;;;;;;14.25;8.07;;;;;;;9.58;69.23;99836.16;7692133;32;39937;-84
2023/01/05 03:48:26;;;;;;;14.18;8.07;;;;;;;9.55;69.09;99833.97;7699202;32;37481;-84
2023/01/05 03:52:42;;;;;;;12.77;7.53;;;;;;;9.53;69.47;99833.41;7699862;32;37220;-83
2023/01/05 03:56:58;;;;;;;11.80;7.12;;;;;;;9.57;69.37;99823.63;7712607;32;39236;-83
2023/01/05 04:01:14;;;;;;;11.98;7.20;;;;;;;9.69;69.34;99816.09;7713211;32;41192;-84
2023/01/05 04:05:31;;;;;;;11.77;7.18;;;;;;;9.63;69.18;99817.16;7712626;32;38128;-84
2023/01/05 04:09:47;;;;;;;12.73;7.20;;;;;;;9.53;69.90;99825.25;7713073;32;36619;-84
2023/01/05 04:14:03;;;;;;;12.35;6.97;;;;;;;8.78;72.05;99823.38;7712789;32;39945;-84
2023/01/05 04:18:19;;;;;;;11.32;6.80;;;;;;;9.71;69.42;99823.97;7712551;32;40587;-84
2023/01/05 04:22:35;;;;;;;12.75;6.80;;;;;;;9.31;70.54;99806.34;7712784;32;37586;-84
2023/01/05 04:26:51;;;;;;;13.68;6.75;;;;;;;9.03;71.69;99809.16;7712293;32;37015;-84
2023/01/05 04:31:08;;;;;;;11.12;5.75;;;;;;;9.16;71.58;99809.81;7699131;32;40063;-84
2023/01/05 04:35:24;;;;;;;10.35;5.82;;;;;;;8.88;72.70;99800.88;7711963;32;41025;-83
2023/01/05 04:39:40;;;;;;;10.85;5.50;;;;;;;9.47;70.68;99804.53;7712624;32;38500;-84
2023/01/05 04:43:57;;;;;;;11.98;6.68;;;;;;;9.59;69.59;99816.03;7712411;32;36983;-84
2023/01/05 04:48:13;;;;;;;10.52;5.97;;;;;;;9.71;69.16;99822.09;7711787;32;39189;-84
2023/01/05 04:52:29;;;;;;;9.05;5.40;;;;;;;9.64;69.50;99812.50;7698838;32;39591;-84
2023/01/05 04:56:45;;;;;;;13.57;6.35;;;;;;;9.64;69.40;99810.63;7711440;32;37933;-84
2023/01/05 05:01:02;;;;;;;9.60;5.50;;;;;;;9.13;71.41;99818.50;7711900;32;37068;-84
2023/01/05 05:05:18;;;;;;;9.77;5.55;;;;;;;8.90;72.53;99820.50;7712008;32;40110;-84
2023/01/05 05:09:34;;;;;;;8.95;5.15;;;;;;;8.83;72.53;99798.16;7712436;32;39883;-84
2023/01/05 05:13:50;;;;;;;7.53;4.65;;;;;;;8.54;73.23;99798.44;7712338;32;37903;-84
2023/01/05 05:18:07;;;;;;;9.75;4.78;;;;;;;8.28;74.26;99775.62;7712030;32;37726;-83
2023/01/05 05:22:25;;;;;;;7.12;4.60;;;;;;;8.25;73.82;99763.38;7712135;32;39372;-83
2023/01/05 05:26:41;;;;;;;6.12;3.58;;;;;;;8.58;71.98;99768.84;7711312;32;39598;-84
2023/01/05 05:30:57;;;;;;;5.62;3.45;;;;;;;8.69;72.09;99758.88;7712083;32;37421;-85
2023/01/05 05:35:14;;;;;;;5.57;3.08;;;;;;;8.62;72.23;99762.66;7711875;32;37827;-82
2023/01/05 05:39:30;;;;;;;8.75;3.85;;;;;;;8.77;70.93;99761.12;7685321;32;39997;-84
2023/01/05 05:43:46;;;;;;;11.73;4.12;;;;;;;8.69;71.68;99758.88;7708740;32;39943;-84
2023/01/05 05:48:02;;;;;;;8.00;4.30;;;;;;;8.79;71.00;99758.97;7711405;32;38525;-84
2023/01/05 05:52:19;;;;;;;7.95;5.05;;;;;;;8.79;71.29;99753.53;7698218;32;37778;-84
2023/01/05 05:56:35;;;;;;;10.95;5.07;;;;;;;8.50;71.62;99759.25;7711199;32;39409;-84
2023/01/05 06:00:55;;;;;;;7.97;3.85;;;;;;;8.38;72.04;99758.59;7710628;32;39861;-84
2023/01/05 06:05:11;;;;;;;7.37;4.40;;;;;;;8.54;71.85;99752.25;7711658;32;38602;-84
2023/01/05 06:09:28;;;;;;;9.55;4.45;;;;;;;8.60;71.67;99753.09;7711197;32;37023;-84
2023/01/05 06:13:45;;;;;;;6.78;3.97;;;;;;;8.83;70.78;99754.66;7711498;32;39322;-84
2023/01/05 06:18:01;;;;;;;7.05;3.97;;;;;;;8.41;71.90;99747.22;7696504;32;40062;-84
2023/01/05 06:22:17;;;;;;;6.85;3.33;;;;;;;8.88;70.53;99730.19;7711099;32;38918;-84
2023/01/05 06:26:33;;;;;;;6.70;3.67;;;;;;;8.88;70.04;99705.72;7711040;32;36507;-84
2023/01/05 06:30:49;;;;;;;9.63;4.68;;;;;;;9.14;69.62;99705.88;7711489;32;39727;-83
2023/01/05 06:35:06;;;;;;;14.02;6.47;;;;;;;9.66;67.97;99696.84;7710889;32;39773;-84
2023/01/05 06:39:22;;;;;;;7.87;4.18;;;;;;;10.04;66.38;99692.03;7711439;32;37921;-84
2023/01/05 06:43:38;;;;;;;10.88;5.60;;;;;;;10.03;65.76;99684.12;7710776;32;37711;-87
2023/01/05 06:47:56;;;;;;;6.45;4.25;;;;;;;10.19;65.41;99682.22;7711004;32;39304;-84
2023/01/05 06:52:12;;;;;;;9.18;4.53;;;;;;;10.22;65.30;99677.03;7711052;32;40736;-84
2023/01/05 06:56:31;;;;;;;7.87;4.70;;;;;;;10.35;64.41;99664.81;7696240;32;38564;-83
2023/01/05 07:00:47;;;;;;;8.77;4.50;;;;;;;10.44;64.28;99662.38;7709805;32;37744;-84
2023/01/05 07:05:04;;;;;;;6.18;3.58;;;;;;;10.36;64.53;99655.53;7709986;32;40011;-85
2023/01/05 07:09:20;;;;;;;8.25;3.80;;;;;;;10.51;63.91;99663.72;7709405;32;39926;-84
2023/01/05 07:13:36;;;;;;;5.25;3.30;;;;;;;10.20;64.17;99660.16;7706630;32;38044;-85
2023/01/05 07:17:53;;;;;;;4.50;2.75;;;;;;;10.69;63.21;99654.16;7709930;32;37379;-85
2023/01/05 07:22:09;;;;;;;6.57;3.08;;;;;;;10.60;62.27;99650.34;7701114;32;274294;-84
2023/01/05 07:26:25;;;;;;;3.95;2.40;;;;;;;10.61;63.10;99651.16;7709895;32;39565;-76
2023/01/05 07:30:41;;;;;;;4.75;2.25;;;;;;;10.39;63.04;99638.66;7710183;32;37998;-75
2023/01/05 07:34:58;;;;;;;3.60;2.15;;;;;;;10.82;62.12;99639.09;7710157;32;37079;-71
2023/01/05 07:39:14;;;;;;;3.60;2.42;;;;;;;10.98;61.37;99633.63;7710669;32;38959;-75
2023/01/05 07:43:30;;;;;;;3.45;2.50;;;;;;;11.22;61.01;99639.25;7696106;32;40000;-86
2023/01/05 07:47:47;;;;;;;5.25;2.37;;;;;;;11.24;60.27;99642.50;7709799;32;37919;-85
2023/01/05 07:52:03;;;;;;;5.35;2.95;;;;;;;11.62;60.15;99627.31;7709732;32;38252;-86
2023/01/05 07:56:19;;;;;;;8.65;3.30;;;;;;;10.84;62.33;99652.47;7709694;32;39886;-85
2023/01/05 08:00:36;;;;;;;3.60;2.25;;;;;;;11.17;61.19;99631.88;7709533;32;39998;-85
2023/01/05 08:04:52;;;;;;;3.08;2.00;;;;;;;11.29;60.11;99623.38;7709343;32;37857;-85
2023/01/05 08:13:59;;;;;;;2.75;1.70;;;;;;;11.07;60.83;99626.47;7707493;32;40006;-85
2023/01/05 08:18:16;;;;;;;2.22;1.90;;;;;;;11.35;59.86;99626.87;7708805;32;40027;-85
2023/01/05 08:22:32;;;;;;;2.40;1.92;;;;;;;11.81;58.74;99624.72;7710817;32;38694;-85
2023/01/05 08:26:50;;;;;;;2.65;1.73;;;;;;;12.26;58.06;99615.66;7712616;32;37028;-86
2023/01/05 08:31:12;;;;;;;2.80;1.90;;;;;;;11.86;58.18;99621.13;7712285;32;38593;-85
2023/01/05 08:35:28;;;;;;;3.05;1.80;;;;;;;11.71;58.47;99630.25;7711603;32;39923;-86
2023/01/05 08:39:44;;;;;;;3.92;2.12;;;;;;;12.17;57.00;99623.66;7711922;32;37934;-85
2023/01/05 08:44:04;;;;;;;4.80;2.50;;;;;;;12.53;55.74;99631.53;7711476;32;37731;-85
2023/01/05 08:48:20;;;;;;;4.37;2.22;;;;;;;11.61;58.47;99635.78;7712545;32;39932;-85
2023/01/05 08:52:39;;;;;;;3.97;2.20;;;;;;;11.67;58.41;99644.75;7712102;32;40830;-86
2023/01/05 08:56:55;;;;;;;3.75;2.00;;;;;;;11.76;58.68;99626.66;7711019;32;38496;-86
2023/01/05 09:01:16;;;;;;;2.40;1.90;;;;;;;11.76;57.64;99618.47;7712629;32;37687;-86
2023/01/05 09:05:33;;;;;;;1.85;1.73;;;;;;;11.97;57.35;99605.50;7697721;32;40054;-86
2023/01/05 09:09:49;;;;;;;1.85;1.67;;;;;;;12.03;56.37;99631.69;7710306;32;40714;-86
2023/01/05 09:14:05;;;;;;;1.58;1.33;;;;;;;11.80;57.24;99627.75;7709245;32;38489;-86
2023/01/05 09:18:21;;;;;;;2.80;1.90;;;;;;;12.14;57.73;99637.88;7709955;32;36585;-86
2023/01/05 09:22:38;;;;;;;2.35;1.52;;;;;;;11.83;59.01;99643.53;7710126;32;40026;-85
2023/01/05 09:26:55;;;;;;;2.67;1.90;;;;;;;11.58;59.57;99642.59;7710397;32;40737;-84
2023/01/05 09:31:13;;;;;;;2.55;1.62;;;;;;;12.04;57.50;99636.06;7712018;32;37935;-85
2023/01/05 09:35:30;;;;;;;3.83;1.70;;;;;;;11.84;58.13;99606.94;7711860;32;37820;-85
2023/01/05 09:39:46;;;;;;;2.12;1.90;;;;;;;11.70;58.86;99605.97;7712052;32;40044;-84
2023/01/05 09:44:11;;;;;;;4.43;2.28;;;;;;;11.93;57.42;99593.50;7711800;32;40963;-84
2023/01/05 09:48:29;;;;;;;2.80;2.22;;;;;;;12.69;57.02;99632.97;7698094;32;37880;-85
2023/01/05 09:52:46;;;;;;;8.30;2.50;;;;;;;12.46;61.38;99647.47;7711162;32;37052;-83
2023/01/05 09:57:05;;;;;;;6.78;2.80;;;;;;;12.11;63.35;99687.66;7696893;32;39303;-85
2023/01/05 10:01:25;;;;;;;6.40;3.30;;;;;;;11.78;65.13;99701.75;7698570;32;40763;-85
2023/01/05 10:05:43;;;;;;;6.25;3.47;;;;;;;11.13;66.88;99723.59;7697909;32;37535;-84
2023/01/05 10:10:07;;;;;;;9.35;4.65;;;;;;;11.26;66.52;99727.63;7698426;32;37641;-84
2023/01/05 10:14:27;;;;;;;7.13;3.90;;;;;;;11.25;66.68;99717.84;7711635;32;39067;-86
2023/01/05 10:18:44;;;;;;;8.48;3.83;;;;;;;11.57;65.59;99722.06;7710278;32;39601;-85
2023/01/05 10:23:20;;;;;;;7.43;4.25;;;;;;;11.20;67.43;99715.94;7697643;32;38073;-84
2023/01/05 10:27:38;;;;;;;7.93;4.22;;;;;;;11.12;67.48;99691.13;7711530;32;37041;-84
2023/01/05 10:32:10;;;;;;;8.27;4.30;;;;;;;11.44;66.76;99691.53;7708870;32;39336;-85
2023/01/05 10:36:54;;;;;;;5.87;3.70;;;;;;;10.86;69.05;99694.72;7709885;32;41647;-85
2023/01/05 10:41:32;;;;;;;7.65;3.90;;;;;;;11.00;68.75;99694.16;7710759;32;37717;-85
2023/01/05 10:45:48;;;;;;;7.60;3.95;;;;;;;10.47;70.79;99702.72;7709808;32;36945;-85
2023/01/05 10:50:27;;;;;;;4.97;3.20;;;;;;;10.44;71.51;99695.06;7708535;32;40317;-84
2023/01/05 10:54:48;;;;;;;6.87;2.67;;;;;;;10.27;72.44;99695.31;7710517;32;40863;-85
2023/01/05 10:59:10;;;;;;;4.32;2.70;;;;;;;10.68;70.84;99695.31;7697039;32;37938;-86
2023/01/05 11:03:37;;;;;;;5.03;2.40;;;;;;;10.03;72.74;99695.81;7697436;32;36903;-85
2023/01/05 11:08:19;;;;;;;5.35;2.58;;;;;;;10.46;71.98;99687.44;7700114;32;39579;-86
2023/01/05 11:12:36;;;;;;;3.75;2.40;;;;;;;9.95;74.02;99678.12;7697109;32;38918;-85
2023/01/05 11:17:00;;;;;;;5.50;2.40;;;;;;;9.34;76.02;99686.94;7710778;32;37858;-85
2023/01/05 11:21:30;;;;;;;3.30;2.20;;;;;;;9.76;75.12;99669.66;7710674;32;37190;-85
2023/01/05 11:25:46;;;;;;;3.90;2.60;;;;;;;10.22;73.38;99659.88;7702484;32;39224;-85
2023/01/05 11:30:32;;;;;;;4.15;2.47;;;;;;;9.94;74.56;99667.50;7710410;32;39968;-86
2023/01/05 11:34:50;;;;;;;4.37;2.45;;;;;;;10.40;72.87;99667.56;7703718;32;37725;-87
2023/01/05 11:39:16;;;;;;;3.42;2.30;;;;;;;10.51;71.46;99671.88;7708859;32;35983;-85
2023/01/05 11:43:32;;;;;;;5.07;2.75;;;;;;;10.96;69.56;99672.06;7710175;32;39929;-85
2023/01/05 11:47:50;;;;;;;6.18;2.47;;;;;;;10.52;69.97;99662.62;7708685;32;39990;-85
2023/01/05 11:52:27;;;;;;;4.50;3.00;;;;;;;10.96;69.23;99677.53;7709706;32;38608;-84
2023/01/05 11:56:43;;;;;;;4.85;2.83;;;;;;;9.91;71.78;99665.31;7710572;32;36974;-84
2023/01/05 12:01:06;;;;;;;7.90;3.45;;;;;;;10.53;70.42;99675.16;7713379;32;38979;-84
2023/01/05 12:05:48;;;;;;;5.43;3.70;;;;;;;10.00;71.52;99685.47;7713112;32;39892;-85
2023/01/05 12:10:35;;;;;;;5.65;3.35;;;;;;;10.12;71.31;99693.38;7712955;32;37811;-83
2023/01/05 12:14:57;;;;;;;6.87;3.85;;;;;;;10.29;71.39;99696.66;7708601;32;36654;-84
2023/01/05 12:19:34;;;;;;;5.15;3.05;;;;;;;9.74;73.18;99701.78;7712837;32;39115;-83
2023/01/05 12:23:55;;;;;;;7.43;4.05;;;;;;;9.54;73.73;99694.34;7712471;32;41620;-85
2023/01/05 12:28:19;;;;;;;6.10;3.78;;;;;;;9.56;74.48;99718.59;7712698;32;38794;-84
2023/01/05 12:33:21;;;;;;;5.10;3.28;;;;;;;9.46;75.59;99713.91;7728058;32;35811;-84
2023/01/05 12:38:05;;;;;;;;;;;;;;;9.47;74.41;99671.19;7729873;32;40771;-84
2023/01/05 12:42:47;;;;;;;5.03;2.97;;;;;;;9.48;74.16;99656.50;7739379;32;39829;-84
2023/01/05 12:47:35;;;;;;;5.95;3.15;;;;;;;9.53;73.24;99643.72;7727871;32;38794;-85
2023/01/05 12:52:15;;;;;;;6.82;3.17;;;;;;;9.72;72.59;99616.81;7727749;32;36811;-84
2023/01/05 12:56:37;;;;;;;5.95;3.22;;;;;;;9.13;74.56;99633.53;7739475;32;39049;-86
2023/01/05 13:00:56;;;;;;;5.15;3.35;;;;;;;9.72;72.91;99630.41;7725867;32;41162;-86
2023/01/05 13:05:31;;;;;;;4.97;3.12;;;;;;;9.85;73.01;99656.31;7725513;32;38717;-86
2023/01/05 13:09:59;;;;;;;6.45;3.40;;;;;;;10.14;72.00;99642.16;7738856;32;36672;-86
2023/01/05 13:14:33;;;;;;;8.85;3.08;;;;;;;9.59;73.49;99660.91;7737321;32;39690;-86
2023/01/05 13:19:21;;;;;;;5.97;2.90;;;;;;;10.04;72.54;99658.53;7738552;32;40028;-86
2023/01/05 13:23:50;;;;;;;4.30;2.80;;;;;;;10.21;71.41;99669.12;7738184;32;37605;-87
2023/01/05 13:28:16;;;;;;;7.72;3.20;;;;;;;10.58;69.55;99657.97;7710914;32;37230;-86
2023/01/05 13:32:38;;;;;;;6.85;2.92;;;;;;;10.22;69.57;99649.78;7710771;32;39245;-86
2023/01/05 13:37:04;;;;;;;7.10;2.85;;;;;;;9.80;71.53;99669.12;7711677;32;40069;-86
2023/01/05 13:41:42;;;;;;;6.53;3.17;;;;;;;9.91;71.25;99668.03;7712114;32;37862;-86
2023/01/05 13:46:04;;;;;;;5.57;2.70;;;;;;;10.27;70.04;99673.50;7712136;32;37649;-88
2023/01/05 13:50:41;;;;;;;6.10;3.00;;;;;;;10.59;68.22;99683.31;7712104;32;39274;-86
2023/01/05 13:55:00;;;;;;;7.85;2.90;;;;;;;10.62;67.97;99696.41;7710860;32;40500;-87
2023/01/05 13:59:22;;;;;;;4.30;2.40;;;;;;;10.56;67.70;99695.59;7710694;32;37580;-86
2023/01/05 14:03:56;;;;;;;3.80;2.47;;;;;;;10.34;68.50;99693.16;7711815;32;37759;-86
2023/01/05 14:08:37;;;;;;;7.87;3.05;;;;;;;10.12;70.11;99696.94;7711754;32;39256;-86
2023/01/05 14:12:53;;;;;;;8.07;3.00;;;;;;;9.87;71.61;99705.88;7706658;32;40768;-86
2023/01/05 14:17:10;;;;;;;4.45;3.05;;;;;;;10.18;70.46;99708.66;7712140;32;35785;-86
2023/01/05 14:21:48;;;;;;;8.32;3.03;;;;;;;9.92;71.04;99696.91;7710539;32;37711;-86
2023/01/05 14:26:05;;;;;;;5.97;2.70;;;;;;;9.71;71.15;99699.59;7711368;32;39247;-86
2023/01/05 14:30:23;;;;;;;6.12;3.42;;;;;;;10.24;69.26;99712.19;7711327;32;39947;-86
2023/01/05 14:35:08;;;;;;;4.57;2.83;;;;;;;10.37;68.90;99700.78;7711329;32;37939;-86
2023/01/05 14:39:33;;;;;;;7.57;3.03;;;;;;;10.70;67.43;99699.41;7710280;32;37659;-86
2023/01/05 14:44:04;;;;;;;5.18;2.35;;;;;;;10.33;67.96;99699.69;7711273;32;39232;-86
2023/01/05 14:48:41;;;;;;;8.85;2.80;;;;;;;10.31;66.65;99710.00;7710112;32;40882;-86
2023/01/05 14:53:33;;;;;;;3.15;2.08;;;;;;;10.31;66.59;99696.37;7710009;32;38093;-86
2023/01/05 14:57:55;;;;;;;3.83;2.35;;;;;;;9.92;66.38;99697.72;7710093;32;37669;-86
2023/01/05 15:02:21;;;;;;;3.55;2.30;;;;;;;9.43;67.75;99706.28;7711227;32;38933;-86
2023/01/05 15:07:05;;;;;;;7.78;2.45;;;;;;;10.13;65.51;99701.28;7709802;32;39624;-86
2023/01/05 15:11:33;;;;;;;6.95;2.70;;;;;;;9.63;66.43;99702.81;7710870;32;37725;-86
2023/01/05 15:16:02;;;;;;;7.53;2.72;;;;;;;10.03;64.93;99706.72;7710831;32;37763;-86
2023/01/05 15:20:24;;;;;;;4.45;2.30;;;;;;;9.89;65.22;99703.69;7709774;32;39201;-86
2023/01/05 15:24:56;;;;;;;4.20;2.40;;;;;;;9.45;65.90;99715.03;7709171;32;40823;-86
2023/01/05 15:29:47;;;;;;;8.18;2.53;;;;;;;9.50;66.53;99720.47;7710290;32;37949;-86
2023/01/05 15:34:27;;;;;;;7.05;2.55;;;;;;;9.18;67.82;99723.31;7710490;32;36787;-86
2023/01/05 15:38:45;;;;;;;7.20;2.42;;;;;;;9.29;67.96;99724.19;7709302;32;38939;-86
2023/01/05 15:43:02;;;;;;;5.62;2.58;;;;;;;9.44;67.14;99729.69;7710156;32;40554;-86
2023/01/05 15:47:20;;;;;;;8.30;2.78;;;;;;;9.71;66.47;99721.38;7709515;32;38783;-86
2023/01/05 15:51:37;;;;;;;6.25;2.90;;;;;;;9.37;67.56;99723.69;7708751;32;36930;-87
2023/01/05 15:55:53;;;;;;;3.28;2.10;;;;;;;8.83;69.25;99739.16;7709784;32;39748;-87
2023/01/05 16:00:24;;;;;;;4.50;2.50;;;;;;;9.11;67.96;99723.56;7708535;32;39955;-87
2023/01/05 16:04:41;;;;;;;7.82;3.17;;;;;;;8.95;69.01;99732.69;7709206;32;37894;-85
2023/01/05 16:09:06;;;;;;;11.90;3.65;;;;;;;9.51;66.89;99732.19;7709389;32;37018;-75
2023/01/05 16:13:28;;;;;;;6.78;2.90;;;;;;;9.02;68.49;99725.94;7709432;32;40031;-76
2023/01/05 16:17:44;;;;;;;7.70;2.85;;;;;;;9.44;66.24;99726.16;7709445;32;40695;-78
2023/01/05 16:22:02;;;;;;;7.75;2.70;;;;;;;9.30;66.30;99726.66;7709125;32;37727;-84
2023/01/05 16:26:19;;;;;;;6.40;2.75;;;;;;;9.13;66.51;99721.38;7708710;32;37004;-85
2023/01/05 16:30:37;;;;;;;6.28;2.80;;;;;;;8.90;66.67;99722.62;7708982;32;39269;-85
2023/01/05 16:35:23;;;;;;;6.53;2.42;;;;;;;8.76;66.53;99729.56;7708839;32;40920;-86
2023/01/05 16:39:43;;;;;;;7.72;2.92;;;;;;;8.67;66.94;99734.69;7708681;32;37512;-87
2023/01/05 16:44:02;;;;;;;5.03;2.58;;;;;;;8.84;66.09;99731.81;7709628;32;36969;-87
2023/01/05 16:48:39;;;;;;;6.68;2.90;;;;;;;9.05;65.68;99729.22;7712699;32;40108;-86
2023/01/05 16:53:03;;;;;;;12.55;3.37;;;;;;;8.92;66.38;99733.25;7712681;32;40541;-87
2023/01/05 16:57:32;;;;;;;6.22;2.65;;;;;;;8.88;66.04;99738.34;7712543;32;37776;-86
2023/01/05 17:01:48;;;;;;;7.60;2.55;;;;;;;8.70;66.25;99746.94;7698766;32;37770;-86
2023/01/05 17:06:05;;;;;;;9.75;3.17;;;;;;;8.80;66.14;99761.41;7712201;32;39355;-85
2023/01/05 17:10:26;;;;;;;7.28;2.72;;;;;;;8.61;66.01;99768.34;7712106;32;39775;-85
2023/01/05 17:14:44;;;;;;;7.65;3.78;;;;;;;9.06;64.63;99767.03;7710929;32;38544;-85
2023/01/05 17:19:00;;;;;;;7.75;3.47;;;;;;;9.35;63.80;99772.91;7711053;32;36783;-85
2023/01/05 17:23:27;;;;;;;11.10;6.53;;;;;;;9.56;62.61;99784.72;7712170;32;39319;-85
2023/01/05 17:27:45;;;;;;;6.60;3.08;;;;;;;9.26;63.50;99796.28;7698321;32;39940;-86
2023/01/05 17:32:01;;;;;;;6.93;3.22;;;;;;;9.45;62.50;99798.53;7698100;32;38538;-85
2023/01/05 17:36:20;;;;;;;8.15;3.17;;;;;;;9.30;62.82;99816.41;7712158;32;37572;-85
2023/01/05 17:40:36;;;;;;;5.87;3.08;;;;;;;9.19;62.58;99806.53;7710684;32;38179;-85
2023/01/05 17:44:53;;;;;;;6.18;2.83;;;;;;;9.49;61.95;99807.81;7712104;32;40065;-85
2023/01/05 17:49:14;;;;;;;9.70;4.53;;;;;;;8.71;63.79;99805.63;7711755;32;38573;-84
2023/01/05 17:53:31;;;;;;;10.15;3.40;;;;;;;8.95;63.82;99806.94;7711863;32;37116;-86
2023/01/05 17:57:47;;;;;;;6.05;3.05;;;;;;;9.08;63.03;99810.28;7697997;32;39199;-86
2023/01/05 18:02:03;;;;;;;7.60;3.90;;;;;;;8.79;64.31;99805.97;7711973;32;40587;-85
2023/01/05 18:06:20;;;;;;;7.90;3.80;;;;;;;8.74;64.76;99807.84;7711674;32;38461;-86
2023/01/05 18:10:37;;;;;;;13.15;4.25;;;;;;;8.37;65.16;99814.81;7711705;32;36903;-85
2023/01/05 18:14:53;;;;;;;8.63;3.62;;;;;;;8.30;65.74;99806.06;7711664;32;39359;-86
2023/01/05 18:19:09;;;;;;;6.07;3.08;;;;;;;8.23;65.66;99822.56;7714045;32;39645;-84
2023/01/05 18:23:25;;;;;;;6.80;2.70;;;;;;;8.32;65.68;99808.53;7720099;32;38523;-83
2023/01/05 18:27:42;;;;;;;9.23;3.47;;;;;;;8.19;65.54;99816.00;7736820;32;36943;-84
2023/01/05 18:31:58;;;;;;;6.53;3.37;;;;;;;8.61;64.68;99809.91;7712899;32;39269;-83
2023/01/05 18:36:15;;;;;;;7.30;3.40;;;;;;;8.57;64.43;99806.09;7733990;32;40016;-84
2023/01/05 18:40:31;;;;;;;6.40;2.62;;;;;;;8.63;64.18;99806.94;7723168;32;37821;-85
2023/01/05 18:44:47;;;;;;;7.68;3.05;;;;;;;8.63;63.64;99810.47;7724946;32;36949;-86
2023/01/05 18:49:04;;;;;;;9.70;3.00;;;;;;;8.30;64.51;99819.66;7703362;32;39071;-86
2023/01/05 18:53:21;;;;;;;7.65;3.12;;;;;;;9.12;62.10;99827.72;7723325;32;39998;-87
2023/01/05 18:57:38;;;;;;;6.53;3.10;;;;;;;9.00;62.12;99838.78;7696830;32;38409;-85
2023/01/05 19:01:54;;;;;;;9.00;4.12;;;;;;;8.97;62.28;99837.41;7723435;32;37093;-86
2023/01/05 19:06:15;;;;;;;10.20;3.15;;;;;;;8.56;63.54;99853.34;7736357;32;40051;-88
2023/01/05 19:10:31;;;;;;;5.55;3.28;;;;;;;9.08;62.28;99849.19;7716532;32;40713;-87
2023/01/05 19:14:47;;;;;;;6.95;2.95;;;;;;;9.13;61.69;99851.94;7712903;32;38424;-86
2023/01/05 19:19:09;;;;;;;9.48;3.70;;;;;;;9.26;61.30;99863.44;7736782;32;36719;-87
2023/01/05 19:23:25;;;;;;;5.68;2.72;;;;;;;9.20;61.39;99863.41;7723825;32;39140;-86
2023/01/05 19:27:46;;;;;;;7.82;3.00;;;;;;;8.85;62.26;99861.25;7735685;32;40700;-87
2023/01/05 19:32:04;;;;;;;7.40;3.40;;;;;;;8.88;61.73;99865.31;7710466;32;37808;-84
2023/01/05 19:36:22;;;;;;;6.72;3.05;;;;;;;9.27;60.83;99862.38;7709290;32;37821;-85
2023/01/05 19:40:38;;;;;;;7.00;3.28;;;;;;;9.39;59.87;99869.25;7708533;32;38302;-84
2023/01/05 19:44:55;;;;;;;8.18;3.37;;;;;;;9.68;59.38;99863.44;7728640;32;40873;-87
2023/01/05 19:49:19;;;;;;;7.28;3.53;;;;;;;9.30;60.10;99865.38;7715539;32;38003;-87
2023/01/05 19:53:37;;;;;;;7.90;3.87;;;;;;;9.16;60.37;99867.75;7719200;32;35937;-84
2023/01/05 19:57:53;;;;;;;5.28;2.70;;;;;;;9.30;60.00;99880.91;7696974;32;39191;-84
2023/01/05 20:02:10;;;;;;;10.70;3.20;;;;;;;8.98;60.71;99882.53;7718922;32;39099;-84
2023/01/05 20:06:35;;;;;;;8.98;3.60;;;;;;;9.40;59.67;99889.13;7727993;32;38620;-84
2023/01/05 20:10:51;;;;;;;7.60;3.47;;;;;;;9.22;59.82;99887.63;7715220;32;36638;-84
2023/01/05 20:15:10;;;;;;;11.95;3.70;;;;;;;9.19;59.85;99899.88;7708962;32;40067;-84
2023/01/05 20:19:29;;;;;;;11.93;5.40;;;;;;;9.21;59.78;99900.41;7710867;32;39451;-84
2023/01/05 20:23:47;;;;;;;9.30;4.62;;;;;;;8.91;60.96;99903.69;7708927;32;37942;-82
2023/01/05 20:28:03;;;;;;;7.55;3.42;;;;;;;9.25;59.97;99917.03;7699289;32;36947;-85
2023/01/05 20:32:22;;;;;;;7.20;2.90;;;;;;;9.10;60.76;99922.34;7695774;32;39079;-85
2023/01/05 20:36:39;;;;;;;7.47;3.22;;;;;;;9.30;60.17;99922.53;7673873;32;40099;-85
2023/01/05 20:40:55;;;;;;;4.95;2.60;;;;;;;9.69;59.19;99925.00;7695257;32;37868;-84
2023/01/05 20:45:12;;;;;;;4.93;2.28;;;;;;;9.54;59.54;99925.69;7700510;32;37800;-84
2023/01/05 20:49:31;;;;;;;3.45;2.20;;;;;;;9.24;60.37;99923.56;7707326;32;40458;-86
2023/01/05 20:53:48;;;;;;;4.97;2.28;;;;;;;9.53;59.54;99926.75;7706598;32;39992;-86
2023/01/05 20:58:05;;;;;;;5.37;2.37;;;;;;;9.67;59.38;99932.56;7694765;32;37988;-86